Bar Harbor, ME (04609)

7:10 AM EST on February 10, 2016 (GMT -0500)
College of the Atlantic | | Change Station
CLOSE
Current Station
Personal Weather Station
Location: Bar Harbor, ME
Elevation: 52 ft
Nearby Weather Stations

Elev 52 ft 44.39 °N, 68.22 °W | Updated 58 seconds ago

Clear
Clear
14.4 °F
Feels Like 14 °F
N
1.4
Wind Variable Wind from WSW
Gusts 1.4 mph

Today
High -- | Low -- °F
--% Chance of Precip.
Yesterday
High -- | Low -- °F
Precip. -- in
Pressure 29.62 in
Visibility 10.0 miles
Clouds Scattered Clouds 9500 ft
Windchill 14 °F
Dew Point 14 °F
Humidity 95%
Rainfall 0.00 in
Snow Depth Not available.
6:40 AM 4:54 PM
Waxing Crescent, 5% visible
METAR KBHB 101155Z 00000KT 10SM SCT095 M13/M13 A2962 RMK AO1 11070 21130 52007
Pressure 29.62 in
Visibility 10.0 miles
Clouds Scattered Clouds 9500 ft
Windchill 14 °F
Dew Point 14 °F
Humidity 95%
Rainfall 0.00 in
Snow Depth Not available.
6:40 AM 4:54 PM
Waxing Crescent, 5% visible
METAR KBHB 101155Z 00000KT 10SM SCT095 M13/M13 A2962 RMK AO1 11070 21130 52007

10-Day Weather Forecast

Almanac

Astronomy

Feb. 10, 2016 Rise Set
Actual Time
Civil Twilight
Nautical Twilight
Astronomical Twilight
Moon
Length of Visible Light
Length of Day
Tomorrow will be .
, % of the Moon is Illuminated

Today's Extremes

State Highs State Lows

Community

WunderPhotos

Upload Photos

1,891,834 photos uploaded!

WunderBlog® & News

Nearby

Air Quality

  Air Quality AQ Index Pollutant
Not available.

Snow Depth

Station Depth Elevation

Earthquake Activity

City Distance Mag. Time & Date
Minimum magnitude displayed is 2.5.

Coastal Water Temperatures

Place Temperature

Stations

Nearby Weather Stations

Station Location Temp. Windchill Dew Point Humidity Wind Precip. Elev Updated Type
                   

Watches & Warnings

There are currently no watches in effect.